createdAt,value
2018-08-24T00:01:28.445Z,17.66
2018-08-24T00:03:57.034Z,17.57
2018-08-24T00:06:25.987Z,17.56
2018-08-24T00:08:55.327Z,17.50
2018-08-24T00:11:24.141Z,17.48
2018-08-24T00:13:52.800Z,17.46
2018-08-24T00:16:26.823Z,17.44
2018-08-24T00:18:55.392Z,17.45
2018-08-24T00:21:24.031Z,17.45
2018-08-24T00:23:52.583Z,17.46
2018-08-24T00:26:21.187Z,17.46
2018-08-24T00:28:49.680Z,17.43
2018-08-24T00:31:18.428Z,17.44
2018-08-24T00:33:52.091Z,17.44
2018-08-24T00:36:22.194Z,17.44
2018-08-24T00:38:50.912Z,17.45
2018-08-24T00:41:19.500Z,17.47
2018-08-24T00:43:48.385Z,17.48
2018-08-24T00:46:16.911Z,17.47
2018-08-24T00:48:46.079Z,17.49
2018-08-24T00:51:14.575Z,17.51
2018-08-24T00:53:43.183Z,17.53
2018-08-24T00:56:12.327Z,17.52
2018-08-24T00:58:41.059Z,17.52
2018-08-24T01:01:10.275Z,17.52
2018-08-24T01:03:39.451Z,17.53
2018-08-24T01:06:08.143Z,17.53
2018-08-24T01:08:37.138Z,17.52
2018-08-24T01:11:05.769Z,17.54
2018-08-24T01:13:34.556Z,17.44
2018-08-24T01:16:03.856Z,17.50
2018-08-24T01:18:37.695Z,17.48
2018-08-24T01:21:06.349Z,17.48
2018-08-24T01:23:35.545Z,17.45
2018-08-24T01:26:04.139Z,17.46
2018-08-24T01:28:32.850Z,17.44
2018-08-24T01:31:05.561Z,17.39
2018-08-24T01:33:34.592Z,17.32
2018-08-24T01:36:03.156Z,17.22
2018-08-24T01:38:32.346Z,17.16
2018-08-24T01:41:00.953Z,17.14
2018-08-24T01:43:29.532Z,17.11
2018-08-24T01:46:14.794Z,17.09
2018-08-24T01:48:43.654Z,17.09
2018-08-24T01:51:12.278Z,17.09
2018-08-24T01:53:40.811Z,17.07
2018-08-24T01:56:09.546Z,17.07
2018-08-24T01:58:38.134Z,17.03
2018-08-24T02:01:06.709Z,17.03
2018-08-24T02:03:35.398Z,17.02
2018-08-24T02:06:06.978Z,16.98
2018-08-24T02:08:36.762Z,16.94
2018-08-24T02:11:10.927Z,16.92
2018-08-24T02:13:46.187Z,16.90
2018-08-24T02:16:14.858Z,16.88
2018-08-24T02:18:48.655Z,16.90
2018-08-24T02:21:22.375Z,16.90
2018-08-24T02:23:51.714Z,16.90
2018-08-24T02:26:20.402Z,16.90
2018-08-24T02:28:49.143Z,16.88
2018-08-24T02:31:17.821Z,16.88
2018-08-24T02:33:46.245Z,16.90
2018-08-24T02:36:14.891Z,16.90
2018-08-24T02:38:43.513Z,16.88
2018-08-24T02:41:12.097Z,16.87
2018-08-24T02:43:40.623Z,16.84
2018-08-24T02:46:10.175Z,16.86
2018-08-24T02:48:38.692Z,16.87
2018-08-24T02:51:07.294Z,16.87
2018-08-24T02:53:35.795Z,16.83
2018-08-24T02:56:04.417Z,16.78
2018-08-24T02:58:32.997Z,16.76
2018-08-24T03:01:01.631Z,16.72
2018-08-24T03:03:30.166Z,16.66
2018-08-24T03:05:58.847Z,16.66
2018-08-24T03:08:27.556Z,16.63
2018-08-24T03:10:56.000Z,16.59
2018-08-24T03:13:24.699Z,16.59
2018-08-24T03:15:53.917Z,16.58
2018-08-24T03:18:22.682Z,16.56
2018-08-24T03:20:51.471Z,16.55
2018-08-24T03:23:20.054Z,16.54
2018-08-24T03:25:48.739Z,16.52
2018-08-24T03:28:17.283Z,16.53
2018-08-24T03:30:45.851Z,16.52
2018-08-24T03:33:14.458Z,16.51
2018-08-24T03:35:42.969Z,16.50
2018-08-24T03:38:11.654Z,16.49
2018-08-24T03:40:40.286Z,16.49
2018-08-24T03:43:09.136Z,16.47
2018-08-24T03:45:37.913Z,16.47
2018-08-24T03:48:06.555Z,16.48
2018-08-24T03:50:35.592Z,16.46
2018-08-24T03:53:04.329Z,16.45
2018-08-24T03:55:36.589Z,16.42
2018-08-24T03:58:06.618Z,16.40
2018-08-24T04:00:35.192Z,16.36
2018-08-24T04:03:04.191Z,16.34
2018-08-24T04:05:33.745Z,16.33
2018-08-24T04:08:02.432Z,16.32
2018-08-24T04:10:31.579Z,16.29
2018-08-24T04:13:00.212Z,16.28
2018-08-24T04:15:28.793Z,16.27
2018-08-24T04:17:57.319Z,16.25
2018-08-24T04:20:26.470Z,16.22
2018-08-24T04:22:54.999Z,16.17
2018-08-24T04:25:23.574Z,16.15
2018-08-24T04:27:52.219Z,16.12
2018-08-24T04:30:20.858Z,16.13
2018-08-24T04:32:49.492Z,16.13
2018-08-24T04:35:18.011Z,16.12
2018-08-24T04:37:47.313Z,16.10
2018-08-24T04:40:15.887Z,16.09
2018-08-24T04:42:44.538Z,16.09
2018-08-24T04:45:13.933Z,16.07
2018-08-24T04:47:42.521Z,16.10
2018-08-24T04:50:11.206Z,16.13
2018-08-24T04:52:40.712Z,16.16
2018-08-24T04:55:09.360Z,16.19
2018-08-24T04:57:38.286Z,16.19
2018-08-24T05:00:08.815Z,16.22
2018-08-24T05:02:37.822Z,16.20
2018-08-24T05:05:07.351Z,16.20
2018-08-24T05:07:35.894Z,16.20
2018-08-24T05:10:05.501Z,16.21
2018-08-24T05:12:34.144Z,16.20
2018-08-24T05:15:02.719Z,16.19
2018-08-24T05:17:31.319Z,16.17
2018-08-24T05:19:59.848Z,16.15
2018-08-24T05:22:28.564Z,16.14
2018-08-24T05:24:57.194Z,16.12
2018-08-24T05:27:25.888Z,16.12
2018-08-24T05:29:54.470Z,16.05
2018-08-24T05:32:24.691Z,16.11
2018-08-24T05:34:54.916Z,16.11
2018-08-24T05:37:26.158Z,16.14
2018-08-24T05:39:57.587Z,16.16
2018-08-24T05:42:29.469Z,16.21
2018-08-24T05:45:02.047Z,16.25
2018-08-24T05:47:32.883Z,16.34
2018-08-24T05:50:02.953Z,16.39
2018-08-24T05:52:36.218Z,16.43
2018-08-24T05:55:05.735Z,16.49
2018-08-24T05:57:36.735Z,16.49
2018-08-24T06:00:08.316Z,16.53
2018-08-24T06:02:40.322Z,16.57
2018-08-24T06:05:12.763Z,16.60
2018-08-24T06:07:46.078Z,16.63
2018-08-24T06:10:15.600Z,16.64
2018-08-24T06:12:44.311Z,16.66
2018-08-24T06:15:16.067Z,16.64
2018-08-24T06:17:50.319Z,16.63
2018-08-24T06:20:20.049Z,16.58
2018-08-24T06:22:48.944Z,16.60
2018-08-24T06:25:17.519Z,16.58
2018-08-24T06:27:47.615Z,16.57
2018-08-24T06:30:16.987Z,16.56
2018-08-24T06:32:45.625Z,16.59
2018-08-24T06:35:14.424Z,16.63
2018-08-24T06:37:42.996Z,16.66
2018-08-24T06:40:11.627Z,16.70
2018-08-24T06:42:40.740Z,16.70
2018-08-24T06:45:09.347Z,16.71
2018-08-24T06:47:38.605Z,16.69
2018-08-24T06:50:07.288Z,16.72
2018-08-24T06:52:35.831Z,16.77
2018-08-24T06:55:05.081Z,16.88
2018-08-24T06:57:33.718Z,16.97
2018-08-24T07:00:02.336Z,17.04
2018-08-24T07:02:30.859Z,17.12
2018-08-24T07:04:59.511Z,17.16
2018-08-24T07:07:28.223Z,17.21
2018-08-24T07:09:56.796Z,17.21
2018-08-24T07:12:25.420Z,17.24
2018-08-24T07:14:54.038Z,17.29
2018-08-24T07:17:28.457Z,17.31
2018-08-24T07:19:56.983Z,17.44
2018-08-24T07:22:25.625Z,17.58
2018-08-24T07:24:54.127Z,17.73
2018-08-24T07:27:22.729Z,17.84
2018-08-24T07:29:51.579Z,17.93
2018-08-24T07:32:20.263Z,18.00
2018-08-24T07:34:48.759Z,18.06
2018-08-24T07:37:17.532Z,18.06
2018-08-24T07:39:46.160Z,18.09
2018-08-24T07:42:14.720Z,18.20
2018-08-24T07:44:48.447Z,18.22
2018-08-24T07:47:16.986Z,18.23
2018-08-24T07:49:45.674Z,18.21
2018-08-24T07:52:14.353Z,18.22
2018-08-24T07:54:42.938Z,18.28
2018-08-24T07:57:11.595Z,18.33
2018-08-24T07:59:40.151Z,18.45
2018-08-24T08:02:09.300Z,18.52
2018-08-24T08:04:37.869Z,18.60
2018-08-24T08:07:06.978Z,18.59
2018-08-24T08:09:35.665Z,18.54
2018-08-24T08:12:04.347Z,18.47
2018-08-24T08:14:32.935Z,18.36
2018-08-24T08:17:02.824Z,18.25
2018-08-24T08:19:32.094Z,18.23
2018-08-24T08:22:01.547Z,18.22
2018-08-24T08:24:30.216Z,18.10
2018-08-24T08:26:58.767Z,18.04
2018-08-24T08:29:32.418Z,17.94
2018-08-24T08:32:01.001Z,17.89
2018-08-24T08:34:29.574Z,17.84
2018-08-24T08:36:58.266Z,17.82
2018-08-24T08:39:26.791Z,17.75
2018-08-24T08:41:55.436Z,17.65
2018-08-24T08:44:23.955Z,17.63
2018-08-24T08:46:52.647Z,17.68
2018-08-24T08:49:21.234Z,17.65
2018-08-24T08:51:49.949Z,17.73
2018-08-24T08:54:18.552Z,17.83
2018-08-24T08:56:47.135Z,18.00
2018-08-24T08:59:15.822Z,18.24
2018-08-24T09:01:44.326Z,18.39
2018-08-24T09:04:12.932Z,18.52
2018-08-24T09:06:41.572Z,18.61
2018-08-24T09:09:10.935Z,18.60
2018-08-24T09:11:39.528Z,18.63
2018-08-24T09:14:08.739Z,18.73
2018-08-24T09:16:37.403Z,18.83
2018-08-24T09:19:11.141Z,18.88
2018-08-24T09:21:44.841Z,18.91
2018-08-24T09:24:18.732Z,18.99
2018-08-24T09:26:52.660Z,19.05
2018-08-24T09:29:23.099Z,19.05
2018-08-24T09:31:51.729Z,19.00
2018-08-24T09:34:20.359Z,18.93
2018-08-24T09:36:49.055Z,18.97
2018-08-24T09:39:21.545Z,18.97
2018-08-24T09:41:50.220Z,18.97
2018-08-24T09:44:19.234Z,19.00
2018-08-24T09:46:52.993Z,19.09
2018-08-24T09:49:26.801Z,19.11
2018-08-24T09:51:55.382Z,19.08
2018-08-24T09:54:23.886Z,18.95
2018-08-24T09:56:52.496Z,18.10
2018-08-24T09:59:21.028Z,18.89
2018-08-24T10:01:54.631Z,18.93
2018-08-24T10:04:28.491Z,18.94
2018-08-24T10:07:02.388Z,18.99
2018-08-24T10:09:31.083Z,19.04
2018-08-24T10:11:59.657Z,19.18
2018-08-24T10:14:28.655Z,19.25
2018-08-24T10:16:57.287Z,19.31
2018-08-24T10:19:25.832Z,19.37
2018-08-24T10:21:54.453Z,19.47
2018-08-24T10:24:23.019Z,19.56
2018-08-24T10:26:51.824Z,19.56
2018-08-24T10:29:21.141Z,19.61
2018-08-24T10:31:49.707Z,19.61
2018-08-24T10:34:18.291Z,19.68
2018-08-24T10:36:46.895Z,19.63
2018-08-24T10:39:15.499Z,19.51
2018-08-24T10:41:44.144Z,19.54
2018-08-24T10:44:12.646Z,19.53
2018-08-24T10:46:41.255Z,19.60
2018-08-24T10:49:09.865Z,19.74
2018-08-24T10:51:38.471Z,19.90
2018-08-24T10:54:07.099Z,19.86
2018-08-24T10:56:36.424Z,19.77
2018-08-24T10:59:04.986Z,19.54
2018-08-24T11:01:34.135Z,19.37
2018-08-24T11:04:03.403Z,19.21
2018-08-24T11:06:32.571Z,19.18
2018-08-24T11:09:01.056Z,19.19
2018-08-24T11:11:29.848Z,19.20
2018-08-24T11:13:59.466Z,19.14
2018-08-24T11:16:28.615Z,19.08
2018-08-24T11:18:57.131Z,19.07
2018-08-24T11:21:25.701Z,19.07
2018-08-24T11:23:54.443Z,19.13
2018-08-24T11:26:22.985Z,19.09
2018-08-24T11:28:51.618Z,19.10
2018-08-24T11:31:20.202Z,19.14
2018-08-24T11:33:48.705Z,18.77
2018-08-24T11:36:17.349Z,18.60
2018-08-24T11:38:45.891Z,18.43
2018-08-24T11:41:14.536Z,18.38
2018-08-24T11:43:43.624Z,18.43
2018-08-24T11:46:12.151Z,18.28
2018-08-24T11:48:40.692Z,18.09
2018-08-24T11:51:09.315Z,17.86
2018-08-24T11:53:37.961Z,17.60
2018-08-24T11:56:07.421Z,17.40
2018-08-24T11:58:36.040Z,17.22
2018-08-24T12:01:04.573Z,17.07
2018-08-24T12:03:33.316Z,16.92
2018-08-24T12:06:02.698Z,16.86
2018-08-24T12:08:31.301Z,16.76
2018-08-24T12:10:59.883Z,16.70
2018-08-24T12:13:28.466Z,16.60
2018-08-24T12:15:57.051Z,16.53
2018-08-24T12:18:25.780Z,16.46
2018-08-24T12:20:54.420Z,16.52
2018-08-24T12:23:23.542Z,16.53
2018-08-24T12:25:52.096Z,16.69
2018-08-24T12:28:20.603Z,16.84
2018-08-24T12:30:49.165Z,17.08
2018-08-24T12:33:17.689Z,17.15
2018-08-24T12:35:46.239Z,17.27
2018-08-24T12:38:14.851Z,17.44
2018-08-24T12:40:43.594Z,17.57
2018-08-24T12:43:12.259Z,17.62
2018-08-24T12:45:41.615Z,17.62
2018-08-24T12:48:10.291Z,17.68
2018-08-24T12:50:38.879Z,17.69
2018-08-24T12:53:08.107Z,17.75
2018-08-24T12:55:36.671Z,17.79
2018-08-24T12:58:05.451Z,17.84
2018-08-24T13:00:34.187Z,17.59
2018-08-24T13:03:02.696Z,17.80
2018-08-24T13:05:32.044Z,17.79
2018-08-24T13:08:00.711Z,17.79
2018-08-24T13:10:29.297Z,17.76
2018-08-24T13:12:58.448Z,17.77
2018-08-24T13:15:27.034Z,17.76
2018-08-24T13:17:55.615Z,17.81
2018-08-24T13:20:24.230Z,17.85
2018-08-24T13:22:52.731Z,17.75
2018-08-24T13:25:21.335Z,17.77
2018-08-24T13:27:50.003Z,17.71
2018-08-24T13:30:18.632Z,17.75
2018-08-24T13:32:47.316Z,17.68
2018-08-24T13:35:15.829Z,17.68
2018-08-24T13:37:44.327Z,17.63
2018-08-24T13:40:13.067Z,17.60
2018-08-24T13:42:41.648Z,17.47
2018-08-24T13:45:10.231Z,17.48
2018-08-24T13:47:38.755Z,17.52
2018-08-24T13:50:07.467Z,17.70
2018-08-24T13:52:36.187Z,17.81
2018-08-24T13:55:04.807Z,17.85
2018-08-24T13:57:33.523Z,17.83
2018-08-24T14:00:02.174Z,17.85
2018-08-24T14:02:30.722Z,17.78
2018-08-24T14:04:59.286Z,17.78
2018-08-24T14:07:28.729Z,17.81
2018-08-24T14:09:57.365Z,17.75
2018-08-24T14:12:26.223Z,17.70
2018-08-24T14:14:54.827Z,17.65
2018-08-24T14:17:23.499Z,17.58
2018-08-24T14:19:52.237Z,17.48
2018-08-24T14:22:20.843Z,17.52
2018-08-24T14:24:49.547Z,17.59
2018-08-24T14:27:18.246Z,17.59
2018-08-24T14:29:47.083Z,17.66
2018-08-24T14:32:16.037Z,17.73
2018-08-24T14:34:44.627Z,17.86
2018-08-24T14:37:13.174Z,18.08
2018-08-24T14:39:41.671Z,18.22
2018-08-24T14:42:10.227Z,18.39
2018-08-24T14:44:38.711Z,18.50
2018-08-24T14:47:07.251Z,18.65
2018-08-24T14:49:35.877Z,18.84
2018-08-24T14:52:04.530Z,18.92
2018-08-24T14:54:33.111Z,18.90
2018-08-24T14:57:01.743Z,18.86
2018-08-24T14:59:30.271Z,18.70
2018-08-24T15:01:58.775Z,18.60
2018-08-24T15:04:27.507Z,18.52
2018-08-24T15:06:56.048Z,18.31
2018-08-24T15:09:24.711Z,18.25
2018-08-24T15:11:53.239Z,18.29
2018-08-24T15:14:21.790Z,18.37
2018-08-24T15:16:50.516Z,18.43
2018-08-24T15:19:19.145Z,18.45
2018-08-24T15:21:47.727Z,18.35
2018-08-24T15:24:17.149Z,18.26
2018-08-24T15:26:45.859Z,17.85
2018-08-24T15:29:14.435Z,18.10
2018-08-24T15:31:43.082Z,17.98
2018-08-24T15:34:11.718Z,17.87
2018-08-24T15:36:40.352Z,17.75
2018-08-24T15:39:11.170Z,17.66
2018-08-24T15:41:40.122Z,17.52
2018-08-24T15:44:09.107Z,17.37
2018-08-24T15:46:37.755Z,17.17
2018-08-24T15:49:07.407Z,17.14
2018-08-24T15:51:36.149Z,17.02
2018-08-24T15:54:05.658Z,16.78
2018-08-24T15:56:34.183Z,16.76
2018-08-24T15:59:02.820Z,16.59
2018-08-24T16:01:31.444Z,16.45
2018-08-24T16:03:59.978Z,16.39
2018-08-24T16:06:28.888Z,16.31
2018-08-24T16:08:58.650Z,16.23
2018-08-24T16:11:27.215Z,16.11
2018-08-24T16:13:55.853Z,16.05
2018-08-24T16:16:24.359Z,16.01
2018-08-24T16:18:52.964Z,15.95
2018-08-24T16:21:21.854Z,15.95
2018-08-24T16:23:50.413Z,16.02
2018-08-24T16:26:24.977Z,16.17
2018-08-24T16:28:54.140Z,16.37
2018-08-24T16:31:23.203Z,16.51
2018-08-24T16:33:52.453Z,16.60
2018-08-24T16:36:21.035Z,16.73
2018-08-24T16:38:50.261Z,16.76
2018-08-24T16:41:18.968Z,16.88
2018-08-24T16:43:47.455Z,16.96
2018-08-24T16:46:16.954Z,16.92
2018-08-24T16:48:46.095Z,16.83
2018-08-24T16:51:14.632Z,16.76
2018-08-24T16:53:43.275Z,16.64
2018-08-24T16:56:11.829Z,16.55
2018-08-24T16:58:40.481Z,16.53
2018-08-24T17:01:09.115Z,16.57
2018-08-24T17:03:37.689Z,16.66
2018-08-24T17:06:06.304Z,16.79
2018-08-24T17:08:35.019Z,16.86
2018-08-24T17:11:04.248Z,16.93
2018-08-24T17:13:33.002Z,16.95
2018-08-24T17:16:01.604Z,16.97
2018-08-24T17:18:30.271Z,16.87
2018-08-24T17:20:58.855Z,16.92
2018-08-24T17:23:27.437Z,16.94
2018-08-24T17:25:56.122Z,16.85
2018-08-24T17:28:24.708Z,16.72
2018-08-24T17:30:53.288Z,16.66
2018-08-24T17:33:21.921Z,16.60
2018-08-24T17:35:51.340Z,16.48
2018-08-24T17:38:19.961Z,16.38
2018-08-24T17:40:48.530Z,16.33
2018-08-24T17:43:17.740Z,16.30
2018-08-24T17:45:46.419Z,16.25
2018-08-24T17:48:15.045Z,16.23
2018-08-24T17:50:43.767Z,16.18
2018-08-24T17:53:12.456Z,16.13
2018-08-24T17:55:41.179Z,16.08
2018-08-24T17:58:09.775Z,16.06
2018-08-24T18:00:38.492Z,16.07
2018-08-24T18:03:07.083Z,16.02
2018-08-24T18:05:35.810Z,15.94
2018-08-24T18:08:05.277Z,15.92
2018-08-24T18:10:33.935Z,15.86
2018-08-24T18:13:02.505Z,15.77
2018-08-24T18:15:31.161Z,15.73
2018-08-24T18:17:59.947Z,15.65
2018-08-24T18:20:28.485Z,15.53
2018-08-24T18:22:57.059Z,15.57
2018-08-24T18:25:25.799Z,15.52
2018-08-24T18:27:54.395Z,15.48
2018-08-24T18:30:22.969Z,15.44
2018-08-24T18:32:51.546Z,15.35
2018-08-24T18:35:20.079Z,15.34
2018-08-24T18:37:48.712Z,15.31
2018-08-24T18:40:17.398Z,15.28
2018-08-24T18:42:45.919Z,15.23
2018-08-24T18:45:15.793Z,15.21
2018-08-24T18:47:44.480Z,15.17
2018-08-24T18:50:13.213Z,15.07
2018-08-24T18:52:41.909Z,15.11
2018-08-24T18:55:10.424Z,15.10
2018-08-24T18:57:39.035Z,15.05
2018-08-24T19:00:08.006Z,15.03
2018-08-24T19:02:36.623Z,15.00
2018-08-24T19:05:05.256Z,14.97
2018-08-24T19:07:33.961Z,14.93
2018-08-24T19:10:02.542Z,14.91
2018-08-24T19:12:31.330Z,14.89
2018-08-24T19:15:00.026Z,14.88
2018-08-24T19:17:33.881Z,14.88
2018-08-24T19:20:07.535Z,14.85
2018-08-24T19:22:36.079Z,14.84
2018-08-24T19:25:04.797Z,14.83
2018-08-24T19:27:38.731Z,14.77
2018-08-24T19:30:13.243Z,14.75
2018-08-24T19:32:41.947Z,14.73
2018-08-24T19:35:10.511Z,14.72
2018-08-24T19:37:39.125Z,14.70
2018-08-24T19:40:13.111Z,14.69
2018-08-24T19:42:41.770Z,14.71
2018-08-24T19:45:11.056Z,14.70
2018-08-24T19:47:44.875Z,14.70
2018-08-24T19:50:13.558Z,14.67
2018-08-24T19:52:42.141Z,14.63
2018-08-24T19:55:10.917Z,14.64
2018-08-24T19:58:45.465Z,14.59
2018-08-24T20:01:14.057Z,14.59
2018-08-24T20:03:42.829Z,14.58
2018-08-24T20:06:16.703Z,14.56
2018-08-24T20:08:50.454Z,14.57
2018-08-24T20:11:19.026Z,14.57
2018-08-24T20:13:47.655Z,14.58
2018-08-24T20:16:21.398Z,14.59
2018-08-24T20:18:50.003Z,14.56
2018-08-24T20:21:18.577Z,14.59
2018-08-24T20:23:48.127Z,14.62
2018-08-24T20:26:16.635Z,14.66
2018-08-24T20:28:45.203Z,14.74
2018-08-24T20:31:13.753Z,14.78
2018-08-24T20:33:42.457Z,14.79
2018-08-24T20:36:11.631Z,14.79
2018-08-24T20:38:40.200Z,14.77
2018-08-24T20:41:08.877Z,14.74
2018-08-24T20:43:37.631Z,14.71
2018-08-24T20:46:06.364Z,14.70
2018-08-24T20:48:34.933Z,14.71
2018-08-24T20:51:03.613Z,14.67
2018-08-24T20:53:32.201Z,14.64
2018-08-24T20:56:00.886Z,14.61
2018-08-24T20:58:29.520Z,14.60
2018-08-24T21:00:58.768Z,14.59
2018-08-24T21:03:27.454Z,14.58
2018-08-24T21:05:56.046Z,14.54
2018-08-24T21:08:24.562Z,14.55
2018-08-24T21:10:53.203Z,14.55
2018-08-24T21:13:21.785Z,14.52
2018-08-24T21:15:50.459Z,14.50
2018-08-24T21:18:19.106Z,14.49
2018-08-24T21:20:47.753Z,14.48
2018-08-24T21:23:16.424Z,14.49
2018-08-24T21:25:45.027Z,14.47
2018-08-24T21:28:13.642Z,14.47
2018-08-24T21:30:42.275Z,14.41
2018-08-24T21:33:11.472Z,14.40
2018-08-24T21:35:40.599Z,14.40
2018-08-24T21:38:09.600Z,14.42
2018-08-24T21:40:38.191Z,14.44
2018-08-24T21:43:06.806Z,14.44
2018-08-24T21:45:35.902Z,14.40
2018-08-24T21:48:04.427Z,14.39
2018-08-24T21:50:33.118Z,14.38
2018-08-24T21:53:02.184Z,14.36
2018-08-24T21:55:30.871Z,14.39
2018-08-24T21:57:59.427Z,14.39
2018-08-24T22:00:28.243Z,14.35
2018-08-24T22:02:56.924Z,14.31
2018-08-24T22:05:26.866Z,14.29
2018-08-24T22:07:56.037Z,14.28
2018-08-24T22:10:24.620Z,14.26
2018-08-24T22:12:53.304Z,14.24
2018-08-24T22:15:21.798Z,14.26
2018-08-24T22:17:50.469Z,14.24
2018-08-24T22:20:19.018Z,14.25
2018-08-24T22:22:47.513Z,14.25
2018-08-24T22:25:16.114Z,14.25
2018-08-24T22:27:45.620Z,14.26
2018-08-24T22:30:14.408Z,14.24
2018-08-24T22:32:43.050Z,14.14
2018-08-24T22:35:11.604Z,14.19
2018-08-24T22:37:40.261Z,14.17
2018-08-24T22:40:08.896Z,14.17
2018-08-24T22:42:37.834Z,14.15
2018-08-24T22:45:06.621Z,14.14
2018-08-24T22:47:35.513Z,14.11
2018-08-24T22:50:04.215Z,14.11
2018-08-24T22:52:32.779Z,14.10
2018-08-24T22:55:01.364Z,14.06
2018-08-24T22:57:29.959Z,14.05
2018-08-24T22:59:58.527Z,14.04
2018-08-24T23:02:27.134Z,14.05
2018-08-24T23:04:55.744Z,14.03
2018-08-24T23:07:24.995Z,14.03
2018-08-24T23:09:53.547Z,14.04
2018-08-24T23:12:22.104Z,14.04
2018-08-24T23:14:50.653Z,14.09
2018-08-24T23:17:19.247Z,14.15
2018-08-24T23:19:47.742Z,14.14
2018-08-24T23:22:16.390Z,14.16
2018-08-24T23:24:44.988Z,14.18
2018-08-24T23:27:14.373Z,14.20
2018-08-24T23:29:42.987Z,14.21
2018-08-24T23:32:11.540Z,14.20
2018-08-24T23:34:40.223Z,14.22
2018-08-24T23:37:09.216Z,14.17
2018-08-24T23:39:37.900Z,14.18
2018-08-24T23:42:06.615Z,14.18
2018-08-24T23:44:35.253Z,14.17
2018-08-24T23:47:03.957Z,14.20
2018-08-24T23:49:32.540Z,14.21
2018-08-24T23:52:01.075Z,14.21
2018-08-24T23:54:29.649Z,14.22
2018-08-24T23:56:58.242Z,14.25
2018-08-24T23:59:26.803Z,14.22
